Time;durP1;ratioP1;P1;durP2;ratioP2;P2;SDS_P1;SDS_P2;PMS_P1;PMS_P2;Temp;Humidity;BMP_temperature;BMP_pressure;BME280_temperature;BME280_humidity;BME280_pressure;Samples;Min_cycle;Max_cycle;Signal;HPM_P1;HPM_P2
2021/09/16 00:02:04;;;;;;;18.38;12.38;;;;;;;22.11;49.92;99855.09;5049948;28;20393;-52
2021/09/16 00:04:29;;;;;;;16.23;11.63;;;;;;;22.04;50.00;99860.81;5050248;28;20041;-50
2021/09/16 00:06:55;;;;;;;18.83;12.20;;;;;;;22.02;50.29;99856.75;5050051;28;20021;-49
2021/09/16 00:09:20;;;;;;;14.95;11.70;;;;;;;22.03;50.56;99861.09;5050088;28;20393;-47
2021/09/16 00:11:46;;;;;;;16.13;12.10;;;;;;;22.06;50.51;99864.06;5049539;28;20036;-50
2021/09/16 00:14:11;;;;;;;18.48;13.15;;;;;;;21.95;50.83;99867.06;5049728;28;20452;-51
2021/09/16 00:16:36;;;;;;;18.05;12.85;;;;;;;21.93;50.66;99866.53;5049491;28;20029;-47
2021/09/16 00:19:02;;;;;;;16.83;12.25;;;;;;;21.94;50.50;99868.19;5049429;28;20028;-49
2021/09/16 00:21:27;;;;;;;17.08;12.57;;;;;;;21.88;50.71;99861.16;5049172;28;20039;-49
2021/09/16 00:23:53;;;;;;;16.58;12.25;;;;;;;21.84;50.69;99863.59;5049799;28;20045;-48
2021/09/16 00:26:18;;;;;;;19.30;12.68;;;;;;;21.92;51.04;99867.66;5049880;28;20086;-51
2021/09/16 00:28:44;;;;;;;19.98;12.35;;;;;;;21.77;51.39;99868.50;5049726;28;20056;-51
2021/09/16 00:31:09;;;;;;;17.15;12.48;;;;;;;21.77;51.10;99865.78;5049909;28;20480;-51
2021/09/16 00:33:34;;;;;;;17.08;12.18;;;;;;;21.79;51.15;99867.13;5049765;28;20032;-47
2021/09/16 00:36:01;;;;;;;18.08;12.25;;;;;;;21.81;51.20;99869.56;5049575;28;20036;-47
2021/09/16 00:38:26;;;;;;;19.90;13.20;;;;;;;21.85;51.19;99873.34;5050054;28;20732;-48
2021/09/16 00:40:52;;;;;;;20.02;12.30;;;;;;;21.89;50.83;99876.31;5050296;28;20061;-48
2021/09/16 00:43:17;;;;;;;18.35;12.82;;;;;;;21.86;50.56;99883.91;5050359;28;20028;-50
2021/09/16 00:45:43;;;;;;;20.52;13.18;;;;;;;21.81;50.49;99878.50;5050359;28;20024;-50
2021/09/16 00:48:08;;;;;;;18.67;13.45;;;;;;;21.83;49.70;99878.22;5049914;28;20025;-47
2021/09/16 00:50:36;;;;;;;21.00;13.15;;;;;;;21.70;50.09;99876.88;5050337;28;20032;-47
2021/09/16 00:53:01;;;;;;;18.58;12.80;;;;;;;21.64;50.08;99876.09;5050660;28;20112;-47
2021/09/16 00:55:27;;;;;;;17.25;12.88;;;;;;;21.67;49.99;99885.56;5050514;28;20060;-48
2021/09/16 00:57:54;;;;;;;20.35;13.15;;;;;;;21.64;50.01;99889.63;5049027;28;20029;-47
2021/09/16 01:00:20;;;;;;;17.48;13.02;;;;;;;21.51;49.57;99875.84;5050400;28;20033;-49
2021/09/16 01:02:45;;;;;;;21.83;13.50;;;;;;;21.00;50.79;99874.75;5050265;28;20033;-47
2021/09/16 01:05:11;;;;;;;22.63;13.63;;;;;;;20.62;52.10;99871.44;5050015;28;20052;-46
2021/09/16 01:07:38;;;;;;;20.52;13.82;;;;;;;21.04;50.65;99875.03;5050439;28;20025;-48
2021/09/16 01:10:08;;;;;;;21.00;13.27;;;;;;;21.20;50.79;99870.44;5050316;28;20056;-49
2021/09/16 01:12:35;;;;;;;20.23;13.27;;;;;;;21.26;49.76;99861.22;5050220;28;20052;-51
2021/09/16 01:15:00;;;;;;;16.40;12.93;;;;;;;21.08;49.73;99835.53;5049867;28;20449;-46
2021/09/16 01:17:26;;;;;;;16.50;12.57;;;;;;;21.37;49.64;99865.53;5050245;28;20044;-48
2021/09/16 01:19:51;;;;;;;19.80;12.73;;;;;;;21.11;49.86;99863.94;5049750;28;20507;-48
2021/09/16 01:22:21;;;;;;;17.00;12.27;;;;;;;21.31;49.26;99860.41;5050178;28;20028;-46
2021/09/16 01:24:46;;;;;;;15.63;12.25;;;;;;;21.35;49.57;99858.78;5050216;28;20508;-48
2021/09/16 01:27:12;;;;;;;15.00;12.02;;;;;;;21.34;49.57;99870.69;5050001;28;20235;-46
2021/09/16 01:29:37;;;;;;;19.50;12.50;;;;;;;21.37;49.09;99868.25;5049964;28;20028;-46
2021/09/16 01:32:04;;;;;;;18.60;12.60;;;;;;;21.39;49.30;99863.38;5049966;28;20029;-46
2021/09/16 01:34:30;;;;;;;18.50;12.25;;;;;;;21.39;48.95;99863.38;5052767;28;20029;-49
2021/09/16 01:36:55;;;;;;;16.23;12.13;;;;;;;21.45;48.71;99864.22;5053757;28;20029;-47
2021/09/16 01:39:20;;;;;;;19.27;12.95;;;;;;;21.39;49.03;99860.66;5053896;28;20029;-46
2021/09/16 01:41:46;;;;;;;19.30;11.65;;;;;;;21.34;48.81;99867.97;5053954;28;20469;-49
2021/09/16 01:44:12;;;;;;;21.90;12.05;;;;;;;21.21;49.19;99866.63;5053924;28;20350;-47
2021/09/16 01:46:37;;;;;;;16.70;11.85;;;;;;;21.19;49.68;99863.38;5053592;28;20487;-48
2021/09/16 01:49:03;;;;;;;17.92;12.35;;;;;;;21.11;49.67;99867.44;5053272;28;20028;-47
2021/09/16 01:51:29;;;;;;;15.85;11.63;;;;;;;21.11;49.65;99861.22;5053276;28;20029;-48
2021/09/16 01:53:55;;;;;;;15.07;11.30;;;;;;;21.14;49.17;99864.19;5052087;28;20365;-49
2021/09/16 01:56:20;;;;;;;20.67;12.07;;;;;;;21.16;49.36;99859.31;5053042;28;20029;-48
2021/09/16 01:58:46;;;;;;;19.38;11.63;;;;;;;21.22;49.44;99865.56;5053178;28;20080;-47
2021/09/16 02:01:11;;;;;;;15.93;11.15;;;;;;;21.25;49.38;99862.31;5053356;28;20033;-46
2021/09/16 02:03:37;;;;;;;15.68;11.77;;;;;;;21.05;50.48;99863.91;5053565;28;20032;-46
2021/09/16 02:06:02;;;;;;;16.15;11.80;;;;;;;20.87;50.74;99861.75;5053243;28;20036;-48
2021/09/16 02:08:28;;;;;;;15.30;11.77;;;;;;;21.00;50.44;99868.50;5051990;28;20033;-47
2021/09/16 02:10:53;;;;;;;14.80;11.80;;;;;;;21.00;50.36;99865.81;5053230;28;20044;-49
2021/09/16 02:13:19;;;;;;;14.32;11.32;;;;;;;20.92;50.35;99867.16;5052632;28;20049;-47
2021/09/16 02:15:45;;;;;;;18.55;11.40;;;;;;;20.86;50.85;99865.53;5053130;28;20035;-48
2021/09/16 02:18:10;;;;;;;14.82;10.55;;;;;;;20.89;50.07;99870.41;5053030;28;20036;-48
2021/09/16 02:20:35;;;;;;;16.95;10.50;;;;;;;20.95;49.90;99869.31;5052927;28;20486;-50
2021/09/16 02:23:01;;;;;;;16.25;10.30;;;;;;;20.88;49.83;99866.06;5053094;28;20451;-48
2021/09/16 02:25:26;;;;;;;14.60;9.93;;;;;;;20.88;49.89;99866.06;5053048;28;20025;-47
2021/09/16 02:27:52;;;;;;;12.35;9.57;;;;;;;20.81;49.76;99857.41;5052899;28;20036;-46
2021/09/16 02:30:17;;;;;;;13.43;9.57;;;;;;;20.81;49.45;99866.34;5053110;28;20353;-47
2021/09/16 02:32:43;;;;;;;13.60;9.93;;;;;;;20.82;49.51;99856.34;5052611;28;20472;-49
2021/09/16 02:35:10;;;;;;;14.27;9.48;;;;;;;20.90;48.96;99853.09;5053050;28;20021;-46
2021/09/16 02:37:36;;;;;;;14.25;9.45;;;;;;;20.93;48.63;99854.47;5052132;28;20495;-47
2021/09/16 02:40:02;;;;;;;14.35;9.93;;;;;;;20.97;48.65;99856.34;5052505;28;20029;-47
2021/09/16 02:42:27;;;;;;;14.25;9.82;;;;;;;20.93;49.05;99865.28;5052407;28;20112;-47
2021/09/16 02:44:53;;;;;;;16.88;9.95;;;;;;;20.88;49.50;99861.47;5051725;28;20028;-50
2021/09/16 02:47:18;;;;;;;13.75;10.25;;;;;;;20.87;49.37;99859.06;5052335;28;20579;-47
2021/09/16 02:49:43;;;;;;;14.02;10.02;;;;;;;20.83;49.75;99866.88;5052411;28;20021;-48
2021/09/16 02:52:09;;;;;;;16.23;10.20;;;;;;;20.73;49.54;99853.34;5052260;28;20032;-50
2021/09/16 02:54:34;;;;;;;16.02;10.60;;;;;;;20.71;49.91;99858.19;5052238;28;20028;-50
2021/09/16 02:57:00;;;;;;;14.63;10.30;;;;;;;20.78;49.65;99864.16;5051954;28;20036;-50
2021/09/16 02:59:25;;;;;;;18.25;10.23;;;;;;;20.82;49.86;99869.84;5052360;28;20044;-50
2021/09/16 03:01:51;;;;;;;15.73;10.10;;;;;;;20.66;50.50;99861.72;5052245;28;20029;-49
2021/09/16 03:04:16;;;;;;;15.98;10.02;;;;;;;20.62;50.65;99863.34;5051782;28;20419;-49
2021/09/16 03:06:41;;;;;;;14.77;10.63;;;;;;;20.61;50.70;99867.09;5051480;28;20021;-49
2021/09/16 03:09:07;;;;;;;14.63;11.30;;;;;;;20.51;51.55;99861.66;5050733;28;20032;-47
2021/09/16 03:11:32;;;;;;;61.65;43.38;;;;;;;20.72;49.63;99862.53;5051875;28;20029;-46
2021/09/16 03:13:58;;;;;;;33.72;24.05;;;;;;;20.78;49.80;99855.25;5051734;28;20053;-48
2021/09/16 03:16:23;;;;;;;54.40;36.53;;;;;;;20.85;49.27;99866.63;5052050;28;20041;-47
2021/09/16 03:18:49;;;;;;;23.13;16.33;;;;;;;20.78;49.55;99866.06;5052105;28;20025;-48
2021/09/16 03:21:14;;;;;;;14.35;10.38;;;;;;;20.80;49.31;99862.00;5052064;28;20029;-47
2021/09/16 03:23:40;;;;;;;15.98;9.68;;;;;;;20.81;49.06;99860.09;5051618;28;20554;-47
2021/09/16 03:26:05;;;;;;;13.13;8.95;;;;;;;20.83;50.82;99861.47;5051882;28;20059;-48
2021/09/16 03:28:31;;;;;;;12.35;9.27;;;;;;;20.97;49.55;99869.06;5051457;28;20031;-48
2021/09/16 03:30:56;;;;;;;12.18;9.40;;;;;;;20.95;48.93;99860.41;5051502;28;20016;-47
2021/09/16 03:33:21;;;;;;;13.27;9.52;;;;;;;20.88;48.81;99863.38;5051144;28;20029;-47
2021/09/16 03:35:47;;;;;;;18.08;12.90;;;;;;;20.80;51.05;99872.03;5051337;28;20035;-48
2021/09/16 03:38:12;;;;;;;18.75;11.43;;;;;;;20.88;49.32;99872.28;5051121;28;20059;-46
2021/09/16 03:40:38;;;;;;;17.05;11.00;;;;;;;20.88;48.73;99874.19;5049935;28;20472;-49
2021/09/16 03:43:03;;;;;;;17.23;11.65;;;;;;;20.92;48.86;99875.25;5049215;28;20343;-47
2021/09/16 03:45:29;;;;;;;13.73;9.93;;;;;;;20.89;49.03;99876.63;5049622;28;20029;-47
2021/09/16 03:47:54;;;;;;;15.23;9.77;;;;;;;20.84;49.00;99879.31;5048939;28;20445;-48
2021/09/16 03:50:19;;;;;;;15.88;10.00;;;;;;;20.79;49.11;99875.78;5048680;28;20043;-47
2021/09/16 03:52:45;;;;;;;15.35;9.82;;;;;;;20.72;48.95;99881.47;5048671;28;20021;-47
2021/09/16 03:55:10;;;;;;;18.30;9.82;;;;;;;20.77;49.63;99883.34;5048923;28;20032;-46
2021/09/16 03:57:36;;;;;;;13.77;9.90;;;;;;;20.38;50.20;99891.88;5049013;28;20025;-47
2021/09/16 04:00:02;;;;;;;14.35;9.60;;;;;;;20.57;49.47;99881.41;5049256;28;20329;-49
2021/09/16 04:02:27;;;;;;;12.70;9.13;;;;;;;20.63;49.32;99881.16;5049158;28;20037;-49
2021/09/16 04:04:52;;;;;;;12.23;9.88;;;;;;;20.70;48.89;99889.03;5050012;28;20535;-47
2021/09/16 04:07:18;;;;;;;15.35;9.65;;;;;;;20.73;49.17;99879.56;5050208;28;20029;-50
2021/09/16 04:09:43;;;;;;;14.63;9.55;;;;;;;20.49;49.72;99883.53;5050523;28;20025;-50
2021/09/16 04:12:09;;;;;;;15.98;9.50;;;;;;;20.68;49.37;99885.78;5050125;28;20048;-45
2021/09/16 04:14:34;;;;;;;14.82;9.60;;;;;;;20.86;49.07;99887.16;5050034;28;20055;-47
2021/09/16 04:17:00;;;;;;;13.38;9.63;;;;;;;20.97;48.90;99893.41;5045586;28;20386;-47
2021/09/16 04:19:25;;;;;;;15.07;9.45;;;;;;;21.07;48.27;99894.22;5042400;28;20083;-49
2021/09/16 04:21:51;;;;;;;23.95;15.98;;;;;;;21.20;48.45;99894.78;5030040;28;20041;-50
2021/09/16 04:24:16;;;;;;;41.55;28.05;;;;;;;21.24;47.87;99895.84;5049508;28;20029;-49
2021/09/16 04:26:45;;;;;;;18.33;12.10;;;;;;;21.22;48.61;99904.25;5049776;28;20408;-36
2021/09/16 04:29:11;;;;;;;16.30;10.20;;;;;;;21.37;48.39;99908.03;5050191;28;20025;-37
2021/09/16 04:31:36;;;;;;;17.73;10.35;;;;;;;21.44;48.57;99900.50;5049466;28;20396;-36
2021/09/16 04:34:02;;;;;;;20.05;11.18;;;;;;;21.63;47.04;99901.56;5049426;28;20417;-37
2021/09/16 04:36:27;;;;;;;16.13;9.93;;;;;;;21.80;46.88;99889.59;5049336;28;20029;-36
2021/09/16 04:38:53;;;;;;;16.45;9.80;;;;;;;22.06;46.41;99893.06;5049288;28;20032;-36
2021/09/16 04:41:18;;;;;;;22.17;10.18;;;;;;;22.22;45.87;99899.25;5049636;28;20339;-36
2021/09/16 04:43:44;;;;;;;22.38;10.30;;;;;;;22.36;45.40;99891.34;5049095;28;20110;-49
2021/09/16 04:46:09;;;;;;;18.38;10.82;;;;;;;22.43;45.31;99892.66;5049139;28;20029;-48
2021/09/16 04:48:35;;;;;;;18.42;10.32;;;;;;;22.55;45.20;99896.97;5049022;28;20648;-49
2021/09/16 04:51:00;;;;;;;19.77;10.82;;;;;;;22.65;44.57;99899.59;5049182;28;20094;-48
2021/09/16 04:53:25;;;;;;;17.08;10.70;;;;;;;22.92;44.21;99909.19;5049077;28;20354;-50
2021/09/16 04:55:51;;;;;;;21.48;10.68;;;;;;;23.01;44.05;99907.53;5047510;28;20033;-48
2021/09/16 04:58:16;;;;;;;19.33;10.60;;;;;;;23.19;43.67;99904.16;5047636;28;20033;-49
2021/09/16 05:00:42;;;;;;;17.35;10.32;;;;;;;23.34;43.48;99911.38;5049127;28;20515;-48
2021/09/16 05:03:07;;;;;;;20.83;9.77;;;;;;;23.66;42.96;99910.00;5049058;28;20029;-49
2021/09/16 05:05:33;;;;;;;17.58;9.82;;;;;;;23.86;42.61;99908.22;5049173;28;20044;-47
2021/09/16 05:07:59;;;;;;;21.67;10.30;;;;;;;24.10;42.13;99902.78;5048930;28;20025;-46
2021/09/16 05:10:25;;;;;;;16.05;9.65;;;;;;;24.38;41.76;99903.78;5036147;28;20033;-46
2021/09/16 05:12:50;;;;;;;19.88;9.80;;;;;;;24.77;40.87;99909.00;5039960;28;20057;-47
2021/09/16 05:15:15;;;;;;;18.55;9.38;;;;;;;25.16;40.00;99915.25;5033308;28;20059;-47
2021/09/16 05:17:41;;;;;;;18.48;9.02;;;;;;;25.50;39.36;99909.53;5035768;28;20039;-47
2021/09/16 05:20:07;;;;;;;20.88;9.13;;;;;;;25.75;38.47;99916.44;5052401;28;20115;-49
2021/09/16 05:22:32;;;;;;;16.50;8.95;;;;;;;26.01;38.47;99912.44;5051441;28;20128;-49
2021/09/16 05:24:58;;;;;;;17.23;8.65;;;;;;;26.25;37.57;99904.88;5053016;28;20033;-49
2021/09/16 05:27:23;;;;;;;16.20;8.95;;;;;;;26.49;37.12;99912.81;5052398;28;20037;-47
2021/09/16 05:29:49;;;;;;;15.88;9.23;;;;;;;26.87;36.40;99903.56;5052876;28;20031;-48
2021/09/16 05:32:14;;;;;;;14.95;9.23;;;;;;;27.06;35.79;99901.47;5052520;28;20110;-48
2021/09/16 05:34:40;;;;;;;14.98;8.52;;;;;;;27.34;35.11;99906.84;5051782;28;20032;-47
2021/09/16 05:37:05;;;;;;;13.45;8.52;;;;;;;27.25;36.25;99905.97;5051053;28;20029;-49
2021/09/16 05:39:31;;;;;;;13.85;8.30;;;;;;;27.59;34.62;99910.84;5051173;28;20075;-48
2021/09/16 05:41:56;;;;;;;11.95;7.75;;;;;;;27.88;34.37;99904.91;5051294;28;20044;-48
2021/09/16 05:44:22;;;;;;;10.23;7.78;;;;;;;28.06;33.98;99914.00;5049664;28;20119;-47
2021/09/16 05:46:47;;;;;;;11.80;8.32;;;;;;;28.30;33.12;99915.50;5050726;28;20043;-46
2021/09/16 05:49:13;;;;;;;16.13;9.05;;;;;;;28.71;32.47;99906.13;5050655;28;20086;-48
2021/09/16 05:51:38;;;;;;;20.83;9.63;;;;;;;28.89;32.32;99900.63;5050807;28;20330;-47
2021/09/16 05:54:04;;;;;;;31.65;9.55;;;;;;;29.27;31.84;99906.25;5051401;28;20033;-49
2021/09/16 05:56:29;;;;;;;35.67;9.40;;;;;;;29.68;31.56;99910.34;5051840;28;20104;-50
2021/09/16 05:58:56;;;;;;;34.28;8.93;;;;;;;30.02;30.85;99912.19;5051844;28;20021;-49
2021/09/16 06:01:21;;;;;;;22.92;8.52;;;;;;;30.22;30.25;99915.31;5051863;28;20480;-49
2021/09/16 06:03:47;;;;;;;11.52;7.95;;;;;;;30.34;29.68;99917.38;5052139;28;20025;-48
2021/09/16 06:06:12;;;;;;;15.38;7.93;;;;;;;30.53;29.72;99914.97;5052106;28;20350;-50
2021/09/16 06:08:38;;;;;;;11.65;7.65;;;;;;;30.80;28.97;99910.09;5051757;28;20472;-48
2021/09/16 06:11:03;;;;;;;11.63;7.63;;;;;;;30.78;28.38;99910.44;5051540;28;20186;-50
2021/09/16 06:13:29;;;;;;;11.05;7.40;;;;;;;31.14;27.97;99910.97;5051973;28;20086;-49
2021/09/16 06:15:54;;;;;;;13.52;7.30;;;;;;;31.59;27.32;99909.41;5052499;28;20024;-48
2021/09/16 06:18:20;;;;;;;10.45;7.50;;;;;;;31.79;26.87;99910.47;5052260;28;20029;-48
2021/09/16 06:20:45;;;;;;;11.95;8.15;;;;;;;32.03;26.14;99902.25;5050664;28;20033;-48
2021/09/16 06:23:11;;;;;;;9.60;7.00;;;;;;;32.09;26.48;99908.34;5052042;28;20442;-49
2021/09/16 06:25:36;;;;;;;11.48;7.55;;;;;;;32.08;26.37;99910.31;5051912;28;20485;-49
2021/09/16 06:28:02;;;;;;;10.05;7.30;;;;;;;32.18;27.13;99910.97;5052091;28;20120;-50
2021/09/16 06:30:27;;;;;;;12.00;7.15;;;;;;;32.40;25.83;99915.97;5052118;28;20108;-50
2021/09/16 06:32:53;;;;;;;9.88;7.00;;;;;;;32.79;25.41;99913.66;5051300;28;20036;-50
2021/09/16 06:35:20;;;;;;;13.63;7.50;;;;;;;33.04;25.08;99917.09;5051568;28;20388;-50
2021/09/16 06:37:45;;;;;;;14.45;7.18;;;;;;;33.26;24.72;99914.97;5051392;28;20345;-50
2021/09/16 06:40:11;;;;;;;10.90;7.07;;;;;;;33.41;24.32;99914.19;5050943;28;20029;-51
2021/09/16 06:42:37;;;;;;;14.18;7.18;;;;;;;33.01;25.08;99906.78;5050901;28;20125;-50
2021/09/16 06:45:03;;;;;;;16.42;7.22;;;;;;;33.01;24.79;99904.03;5051064;28;20043;-51
2021/09/16 06:47:29;;;;;;;11.15;7.25;;;;;;;33.19;24.54;99903.78;5051122;28;20028;-50
2021/09/16 06:49:54;;;;;;;11.45;6.97;;;;;;;33.62;24.09;99913.16;5051294;28;20449;-50
2021/09/16 06:52:22;;;;;;;14.90;7.35;;;;;;;33.08;24.74;99909.75;5051152;28;20096;-48
2021/09/16 06:54:48;;;;;;;9.75;6.80;;;;;;;33.09;24.71;99911.34;5051207;28;20400;-50
2021/09/16 06:57:13;;;;;;;12.73;7.43;;;;;;;33.19;24.94;99912.84;5051120;28;20033;-50
2021/09/16 06:59:39;;;;;;;10.98;7.43;;;;;;;33.21;23.97;99912.50;5050318;28;20040;-49
2021/09/16 07:02:04;;;;;;;10.60;7.20;;;;;;;33.20;24.40;99910.88;5050269;28;20036;-52
2021/09/16 07:04:30;;;;;;;13.90;7.60;;;;;;;33.15;24.51;99911.13;5050381;28;20052;-51
2021/09/16 07:06:58;;;;;;;10.52;6.85;;;;;;;32.83;24.90;99919.28;5050053;28;20021;-48
2021/09/16 07:09:24;;;;;;;13.97;7.50;;;;;;;32.88;24.80;99922.56;5048714;28;20047;-47
2021/09/16 07:11:49;;;;;;;12.15;8.02;;;;;;;33.16;24.63;99916.28;5049913;28;20271;-51
2021/09/16 07:14:14;;;;;;;9.15;7.45;;;;;;;33.42;24.02;99912.25;5050285;28;20028;-49
2021/09/16 07:16:40;;;;;;;9.85;7.10;;;;;;;33.86;23.45;99924.06;5049784;28;20051;-48
2021/09/16 07:19:05;;;;;;;13.18;7.50;;;;;;;34.23;22.86;99918.28;5049687;28;20020;-47
2021/09/16 07:21:31;;;;;;;8.52;7.63;;;;;;;34.52;22.33;99923.63;5049972;28;20029;-50
2021/09/16 07:23:56;;;;;;;10.00;7.57;;;;;;;32.65;24.69;99921.47;5049805;28;20584;-50
2021/09/16 07:26:23;;;;;;;10.25;7.43;;;;;;;33.14;24.16;99907.56;5049301;28;20098;-47
2021/09/16 07:28:48;;;;;;;14.13;7.70;;;;;;;33.15;24.35;99908.34;5049495;28;20413;-49
2021/09/16 07:31:14;;;;;;;10.25;7.55;;;;;;;33.63;23.58;99912.84;5049620;28;20044;-50
2021/09/16 07:33:39;;;;;;;11.55;7.70;;;;;;;33.75;24.18;99913.91;5049927;28;20033;-47
2021/09/16 07:36:05;;;;;;;11.15;7.60;;;;;;;34.00;23.75;99915.31;5050033;28;20036;-49
2021/09/16 07:38:30;;;;;;;11.88;7.68;;;;;;;33.14;24.58;99915.03;5050544;28;20029;-49
2021/09/16 07:40:56;;;;;;;11.55;7.45;;;;;;;34.08;23.75;99911.56;5050826;28;20031;-47
2021/09/16 07:43:21;;;;;;;10.45;7.82;;;;;;;33.42;24.38;99918.56;5050440;28;20025;-48
2021/09/16 07:45:47;;;;;;;12.02;7.30;;;;;;;33.11;24.77;99908.28;5050481;28;20493;-47
2021/09/16 07:48:13;;;;;;;10.43;7.45;;;;;;;34.06;23.83;99911.13;5050070;28;20511;-49
2021/09/16 07:50:38;;;;;;;9.57;6.80;;;;;;;34.47;23.01;99913.66;5050434;28;20024;-50
2021/09/16 07:53:05;;;;;;;10.02;6.85;;;;;;;34.80;23.19;99912.41;5050561;28;20410;-49
2021/09/16 07:55:30;;;;;;;9.07;6.65;;;;;;;34.89;22.75;99910.22;5050330;28;20032;-47
2021/09/16 07:57:56;;;;;;;10.60;7.60;;;;;;;34.57;22.93;99901.25;5050125;28;20025;-48
2021/09/16 08:00:21;;;;;;;9.65;7.40;;;;;;;34.48;23.38;99901.44;5050146;28;20182;-48
2021/09/16 08:02:48;;;;;;;10.93;6.90;;;;;;;35.01;23.17;99910.09;5050019;28;20029;-51
2021/09/16 08:05:14;;;;;;;11.02;7.25;;;;;;;35.48;22.72;99902.69;5050481;28;20056;-47
2021/09/16 08:07:39;;;;;;;11.00;6.75;;;;;;;35.74;22.31;99901.97;5049757;28;20442;-50
2021/09/16 08:10:05;;;;;;;8.68;6.85;;;;;;;36.11;22.39;99895.81;5050100;28;20036;-48
2021/09/16 08:12:31;;;;;;;9.20;6.63;;;;;;;36.65;21.39;99899.38;5049486;28;20084;-49
2021/09/16 08:14:56;;;;;;;11.13;7.05;;;;;;;36.05;21.56;99900.06;5049851;28;20020;-50
2021/09/16 08:17:22;;;;;;;10.10;6.85;;;;;;;36.78;21.14;99899.94;5050200;28;20029;-47
2021/09/16 08:19:47;;;;;;;10.23;7.00;;;;;;;37.20;20.50;99898.84;5049766;28;20025;-48
2021/09/16 08:22:13;;;;;;;9.73;6.57;;;;;;;37.42;20.31;99896.31;5049704;28;20040;-48
2021/09/16 08:24:38;;;;;;;10.85;7.25;;;;;;;37.39;20.24;99895.06;5049974;28;20028;-49
2021/09/16 08:27:04;;;;;;;10.80;7.10;;;;;;;37.61;20.25;99896.09;5049645;28;20060;-48
2021/09/16 08:29:30;;;;;;;10.82;6.85;;;;;;;37.77;20.08;99881.16;5049690;28;20025;-46
2021/09/16 08:31:55;;;;;;;11.10;7.93;;;;;;;38.01;19.53;99883.31;5049783;28;20100;-52
2021/09/16 08:34:25;;;;;;;11.82;6.93;;;;;;;37.66;20.15;99881.88;5050006;28;20130;-49
2021/09/16 08:36:51;;;;;;;10.82;6.80;;;;;;;37.83;19.64;99885.94;5049769;28;20364;-50
2021/09/16 08:39:16;;;;;;;8.70;6.88;;;;;;;38.05;19.52;99886.13;5049491;28;20103;-52
2021/09/16 08:41:42;;;;;;;9.15;6.25;;;;;;;38.41;18.82;99880.81;5049314;28;20063;-48
2021/09/16 08:44:09;;;;;;;10.50;6.35;;;;;;;38.72;18.66;99877.38;5047553;28;20033;-49
2021/09/16 08:46:34;;;;;;;11.10;6.63;;;;;;;38.93;18.25;99884.19;5047597;28;20021;-49
2021/09/16 08:49:00;;;;;;;10.05;6.50;;;;;;;38.76;18.20;99874.59;5049007;28;20025;-52
2021/09/16 08:51:25;;;;;;;8.48;6.80;;;;;;;38.09;18.88;99865.53;5049521;28;20025;-51
2021/09/16 08:53:52;;;;;;;12.68;6.82;;;;;;;38.00;19.15;99870.59;5031552;28;20033;-51
2021/09/16 08:56:17;;;;;;;11.15;7.00;;;;;;;37.91;19.08;99870.16;5049267;28;20024;-49
2021/09/16 08:58:44;;;;;;;9.70;6.65;;;;;;;38.02;19.13;99865.44;5049200;28;20036;-49
2021/09/16 09:01:10;;;;;;;10.52;6.63;;;;;;;37.92;19.11;99853.09;5049042;28;20075;-49
2021/09/16 09:03:36;;;;;;;9.10;6.38;;;;;;;38.32;18.71;99851.38;5048109;28;20464;-48
2021/09/16 09:06:01;;;;;;;11.73;6.40;;;;;;;38.75;18.56;99856.34;5048866;28;20032;-52
2021/09/16 09:08:27;;;;;;;9.93;6.88;;;;;;;39.04;18.01;99853.66;5048634;28;20333;-50
2021/09/16 09:10:54;;;;;;;8.65;6.30;;;;;;;39.21;17.65;99843.75;5048986;28;20029;-48
2021/09/16 09:13:33;;;;;;;11.77;6.72;;;;;;;39.35;17.74;99840.97;5049014;28;20057;-48
2021/09/16 09:16:06;;;;;;;10.68;6.32;;;;;;;39.49;17.61;99843.00;5049198;28;20035;-47
2021/09/16 09:18:42;;;;;;;9.98;6.30;;;;;;;39.57;17.45;99839.03;5049026;28;20087;-49
2021/09/16 09:21:08;;;;;;;9.93;6.35;;;;;;;38.70;17.33;99837.25;5048732;28;20105;-49
2021/09/16 09:23:35;;;;;;;13.32;6.28;;;;;;;38.98;17.76;99836.53;5048903;28;20048;-48
2021/09/16 09:26:21;;;;;;;11.60;6.70;;;;;;;38.95;17.42;99828.19;5048850;28;20032;-50
2021/09/16 09:28:46;;;;;;;9.18;6.15;;;;;;;38.84;17.03;99833.72;5048423;28;20032;-49
2021/09/16 09:31:16;;;;;;;16.50;11.48;;;;;;;38.45;17.42;99826.81;5049622;28;20025;-51
2021/09/16 09:33:42;;;;;;;11.90;7.15;;;;;;;38.20;17.96;99823.94;5049508;28;20029;-48
2021/09/16 09:36:10;;;;;;;10.25;6.22;;;;;;;37.69;19.09;99820.03;5047984;28;20032;-49
2021/09/16 09:38:47;;;;;;;8.23;6.70;;;;;;;37.70;18.49;99823.59;5049269;28;20031;-50
2021/09/16 09:41:12;;;;;;;10.07;6.00;;;;;;;38.27;18.73;99829.53;5049034;28;20032;-49
2021/09/16 09:43:38;;;;;;;11.77;6.40;;;;;;;38.79;18.03;99823.00;5031045;28;20044;-51
2021/09/16 09:46:07;;;;;;;11.40;6.38;;;;;;;38.84;17.60;99817.03;5047450;28;20513;-49
2021/09/16 09:48:35;;;;;;;9.20;6.53;;;;;;;38.80;18.11;99819.78;5048064;28;20029;-50
2021/09/16 09:51:01;;;;;;;8.05;6.07;;;;;;;38.71;18.09;99817.41;5049389;28;20021;-50
2021/09/16 09:53:26;;;;;;;9.98;5.93;;;;;;;39.09;16.97;99815.13;5049087;28;20513;-50
2021/09/16 09:55:52;;;;;;;10.70;6.07;;;;;;;39.30;16.58;99814.34;5052109;28;20470;-51
2021/09/16 09:58:35;;;;;;;8.30;6.32;;;;;;;38.81;17.29;99815.84;5052069;28;20435;-49
2021/09/16 10:01:28;;;;;;;8.52;6.15;;;;;;;38.32;17.47;99804.13;5052709;28;20027;-48
2021/09/16 10:03:53;;;;;;;8.57;6.22;;;;;;;38.77;16.98;99808.69;5052429;28;20040;-48
2021/09/16 10:06:19;;;;;;;10.32;7.05;;;;;;;38.68;17.17;99803.50;5052474;28;20025;-48
2021/09/16 10:09:05;;;;;;;8.18;6.32;;;;;;;39.07;17.32;99798.03;5052150;28;20055;-49
2021/09/16 10:11:46;;;;;;;12.68;6.18;;;;;;;38.82;17.67;99803.53;5050973;28;20666;-48
2021/09/16 10:14:12;;;;;;;8.05;5.72;;;;;;;39.09;16.58;99795.66;5052391;28;20044;-51
2021/09/16 10:16:37;;;;;;;10.40;6.00;;;;;;;38.24;16.63;99796.19;5051691;28;20033;-48
2021/09/16 10:19:03;;;;;;;8.93;5.88;;;;;;;37.29;17.74;99788.38;5051880;28;20075;-50
2021/09/16 10:21:29;;;;;;;10.93;5.90;;;;;;;37.59;17.41;99789.41;5052099;28;20078;-48
2021/09/16 10:23:54;;;;;;;8.75;5.60;;;;;;;37.67;17.45;99782.75;5052200;28;20021;-51
2021/09/16 10:26:37;;;;;;;7.68;6.10;;;;;;;36.00;18.67;99778.56;5052059;28;20040;-49
2021/09/16 10:29:26;;;;;;;10.95;6.10;;;;;;;36.60;18.74;99784.09;5051611;28;20415;-49
2021/09/16 10:32:07;;;;;;;8.85;5.72;;;;;;;37.02;18.79;99782.19;5051932;28;20021;-48
2021/09/16 10:34:46;;;;;;;8.60;5.55;;;;;;;37.52;18.16;99773.50;5051679;28;20107;-49
2021/09/16 10:37:13;;;;;;;11.35;5.68;;;;;;;38.04;17.62;99776.19;5051481;28;20020;-49
2021/09/16 10:39:39;;;;;;;7.65;5.55;;;;;;;38.71;16.57;99772.16;5051528;28;20040;-49
2021/09/16 10:42:06;;;;;;;7.35;5.70;;;;;;;39.08;16.68;99759.88;5051110;28;20049;-49
2021/09/16 10:44:31;;;;;;;7.20;5.30;;;;;;;39.27;16.08;99759.47;5051697;28;20032;-51
2021/09/16 10:47:00;;;;;;;10.88;5.93;;;;;;;38.29;16.63;99760.47;5050298;28;20017;-51
2021/09/16 10:49:28;;;;;;;7.90;5.68;;;;;;;38.22;16.98;99765.22;5050279;28;20025;-50
2021/09/16 10:52:02;;;;;;;7.65;6.03;;;;;;;38.35;16.66;99763.69;5051662;28;20603;-47
2021/09/16 10:54:38;;;;;;;9.88;5.80;;;;;;;37.27;16.91;99745.56;5051029;28;20128;-50
2021/09/16 10:57:04;;;;;;;11.30;5.68;;;;;;;36.84;17.44;99745.94;5051301;28;20025;-50
2021/09/16 10:59:51;;;;;;;9.00;6.38;;;;;;;37.54;17.73;99735.84;5049852;28;20370;-51
2021/09/16 11:02:46;;;;;;;9.25;5.78;;;;;;;38.30;17.43;99736.25;5051458;28;20052;-51
2021/09/16 11:05:12;;;;;;;8.65;5.80;;;;;;;38.76;16.33;99729.25;5051802;28;20025;-51
2021/09/16 11:07:38;;;;;;;7.28;5.00;;;;;;;38.73;16.51;99730.84;5050984;28;20025;-52
2021/09/16 11:10:13;;;;;;;6.47;5.07;;;;;;;38.97;16.16;99734.03;5051668;28;20025;-48
2021/09/16 11:12:38;;;;;;;8.57;5.57;;;;;;;38.94;15.31;99732.84;5050990;28;20049;-52
2021/09/16 11:15:04;;;;;;;6.93;4.85;;;;;;;37.92;16.59;99730.13;5051390;28;20036;-51
2021/09/16 11:17:30;;;;;;;6.78;4.85;;;;;;;38.45;15.98;99726.00;5050913;28;20453;-51
2021/09/16 11:19:55;;;;;;;7.43;4.95;;;;;;;38.81;16.31;99721.31;5050033;28;20029;-47
2021/09/16 11:22:24;;;;;;;7.57;4.80;;;;;;;39.20;15.92;99719.75;5051382;28;20021;-50